sensor_id;sensor_type;location;lat;lon;timestamp;temperature;humidity
2062;DHT22;11070;51.336;12.340;2023-05-19T00:00:42;12.20;99.30
2062;DHT22;11070;51.336;12.340;2023-05-19T00:03:11;12.20;99.30
2062;DHT22;11070;51.336;12.340;2023-05-19T00:05:39;12.20;99.50
2062;DHT22;11070;51.336;12.340;2023-05-19T00:08:10;12.20;99.30
2062;DHT22;11070;51.336;12.340;2023-05-19T00:10:36;12.20;99.50
2062;DHT22;11070;51.336;12.340;2023-05-19T00:13:02;12.20;99.70
2062;DHT22;11070;51.336;12.340;2023-05-19T00:15:29;12.20;99.60
2062;DHT22;11070;51.336;12.340;2023-05-19T00:17:54;12.20;99.90
2062;DHT22;11070;51.336;12.340;2023-05-19T00:20:21;12.10;99.90
2062;DHT22;11070;51.336;12.340;2023-05-19T00:22:47;12.10;99.90
2062;DHT22;11070;51.336;12.340;2023-05-19T00:25:13;12.00;99.90
2062;DHT22;11070;51.336;12.340;2023-05-19T00:27:38;12.10;99.90
2062;DHT22;11070;51.336;12.340;2023-05-19T00:30:04;12.00;99.90
2062;DHT22;11070;51.336;12.340;2023-05-19T00:32:30;12.00;99.90
2062;DHT22;11070;51.336;12.340;2023-05-19T00:34:56;12.00;99.90
2062;DHT22;11070;51.336;12.340;2023-05-19T00:37:22;12.00;99.90
2062;DHT22;11070;51.336;12.340;2023-05-19T00:39:48;12.00;99.90
2062;DHT22;11070;51.336;12.340;2023-05-19T00:42:14;11.90;99.90
2062;DHT22;11070;51.336;12.340;2023-05-19T00:44:40;11.90;99.90
2062;DHT22;11070;51.336;12.340;2023-05-19T00:47:07;11.80;99.90
2062;DHT22;11070;51.336;12.340;2023-05-19T00:49:33;11.80;99.90
2062;DHT22;11070;51.336;12.340;2023-05-19T00:52:00;11.70;99.90
2062;DHT22;11070;51.336;12.340;2023-05-19T00:54:27;11.70;99.90
2062;DHT22;11070;51.336;12.340;2023-05-19T00:56:58;11.70;99.90
2062;DHT22;11070;51.336;12.340;2023-05-19T00:59:24;11.70;99.90
2062;DHT22;11070;51.336;12.340;2023-05-19T01:01:50;11.70;99.90
2062;DHT22;11070;51.336;12.340;2023-05-19T01:04:18;11.70;99.90
2062;DHT22;11070;51.336;12.340;2023-05-19T01:06:46;11.60;99.90
2062;DHT22;11070;51.336;12.340;2023-05-19T01:09:12;11.60;99.90
2062;DHT22;11070;51.336;12.340;2023-05-19T01:11:38;11.50;99.90
2062;DHT22;11070;51.336;12.340;2023-05-19T01:14:04;11.50;99.90
2062;DHT22;11070;51.336;12.340;2023-05-19T01:16:34;11.50;99.90
2062;DHT22;11070;51.336;12.340;2023-05-19T01:28:14;11.40;99.90
2062;DHT22;11070;51.336;12.340;2023-05-19T01:30:48;11.40;99.90
2062;DHT22;11070;51.336;12.340;2023-05-19T01:33:16;11.40;99.90
2062;DHT22;11070;51.336;12.340;2023-05-19T01:35:43;11.30;99.90
2062;DHT22;11070;51.336;12.340;2023-05-19T01:38:11;11.30;99.90
2062;DHT22;11070;51.336;12.340;2023-05-19T01:40:39;11.30;99.90
2062;DHT22;11070;51.336;12.340;2023-05-19T01:43:08;11.30;99.90
2062;DHT22;11070;51.336;12.340;2023-05-19T01:45:34;11.30;99.90
2062;DHT22;11070;51.336;12.340;2023-05-19T01:48:03;11.30;99.90
2062;DHT22;11070;51.336;12.340;2023-05-19T01:50:30;11.20;99.90
2062;DHT22;11070;51.336;12.340;2023-05-19T01:52:56;11.20;99.90
2062;DHT22;11070;51.336;12.340;2023-05-19T01:55:22;11.20;99.90
2062;DHT22;11070;51.336;12.340;2023-05-19T02:09:01;11.20;99.90
2062;DHT22;11070;51.336;12.340;2023-05-19T02:11:37;11.10;99.90
2062;DHT22;11070;51.336;12.340;2023-05-19T02:14:11;11.10;99.90
2062;DHT22;11070;51.336;12.340;2023-05-19T02:16:38;11.00;99.90
2062;DHT22;11070;51.336;12.340;2023-05-19T02:19:06;11.00;99.90
2062;DHT22;11070;51.336;12.340;2023-05-19T02:21:43;10.90;99.90
2062;DHT22;11070;51.336;12.340;2023-05-19T02:24:09;10.90;99.90
2062;DHT22;11070;51.336;12.340;2023-05-19T02:26:35;10.80;99.90
2062;DHT22;11070;51.336;12.340;2023-05-19T02:29:00;10.80;99.90
2062;DHT22;11070;51.336;12.340;2023-05-19T02:31:26;10.80;99.90
2062;DHT22;11070;51.336;12.340;2023-05-19T02:33:52;10.80;99.90
2062;DHT22;11070;51.336;12.340;2023-05-19T02:36:17;10.80;99.90
2062;DHT22;11070;51.336;12.340;2023-05-19T02:38:43;10.80;99.90
2062;DHT22;11070;51.336;12.340;2023-05-19T02:41:09;10.80;99.90
2062;DHT22;11070;51.336;12.340;2023-05-19T02:43:35;10.80;99.90
2062;DHT22;11070;51.336;12.340;2023-05-19T02:46:00;10.80;99.90
2062;DHT22;11070;51.336;12.340;2023-05-19T02:48:26;10.80;99.90
2062;DHT22;11070;51.336;12.340;2023-05-19T02:50:52;10.70;99.90
2062;DHT22;11070;51.336;12.340;2023-05-19T02:53:17;10.80;99.90
2062;DHT22;11070;51.336;12.340;2023-05-19T02:55:43;10.80;99.90
2062;DHT22;11070;51.336;12.340;2023-05-19T02:58:09;10.70;99.90
2062;DHT22;11070;51.336;12.340;2023-05-19T03:00:35;10.80;99.90
2062;DHT22;11070;51.336;12.340;2023-05-19T03:03:00;10.70;99.90
2062;DHT22;11070;51.336;12.340;2023-05-19T03:05:27;10.70;99.90
2062;DHT22;11070;51.336;12.340;2023-05-19T03:07:54;10.70;99.90
2062;DHT22;11070;51.336;12.340;2023-05-19T03:10:20;10.60;99.90
2062;DHT22;11070;51.336;12.340;2023-05-19T03:12:46;10.60;99.90
2062;DHT22;11070;51.336;12.340;2023-05-19T03:15:11;10.60;99.90
2062;DHT22;11070;51.336;12.340;2023-05-19T03:17:40;10.60;99.90
2062;DHT22;11070;51.336;12.340;2023-05-19T03:20:07;10.50;99.90
2062;DHT22;11070;51.336;12.340;2023-05-19T03:22:34;10.50;99.90
2062;DHT22;11070;51.336;12.340;2023-05-19T03:24:59;10.50;99.90
2062;DHT22;11070;51.336;12.340;2023-05-19T03:27:25;10.50;99.90
2062;DHT22;11070;51.336;12.340;2023-05-19T03:29:51;10.40;99.90
2062;DHT22;11070;51.336;12.340;2023-05-19T03:32:18;10.40;99.90
2062;DHT22;11070;51.336;12.340;2023-05-19T03:34:43;10.30;99.90
2062;DHT22;11070;51.336;12.340;2023-05-19T03:37:09;10.30;99.90
2062;DHT22;11070;51.336;12.340;2023-05-19T03:39:35;10.30;99.90
2062;DHT22;11070;51.336;12.340;2023-05-19T03:42:01;10.30;99.90
2062;DHT22;11070;51.336;12.340;2023-05-19T03:44:26;10.30;99.90
2062;DHT22;11070;51.336;12.340;2023-05-19T03:46:52;10.30;99.90
2062;DHT22;11070;51.336;12.340;2023-05-19T03:49:18;10.20;99.90
2062;DHT22;11070;51.336;12.340;2023-05-19T03:51:43;10.20;99.90
2062;DHT22;11070;51.336;12.340;2023-05-19T03:54:09;10.20;99.90
2062;DHT22;11070;51.336;12.340;2023-05-19T03:56:38;10.20;99.90
2062;DHT22;11070;51.336;12.340;2023-05-19T03:59:04;10.20;99.90
2062;DHT22;11070;51.336;12.340;2023-05-19T04:01:31;10.20;99.90
2062;DHT22;11070;51.336;12.340;2023-05-19T04:03:57;10.20;99.90
2062;DHT22;11070;51.336;12.340;2023-05-19T04:06:23;10.20;99.90
2062;DHT22;11070;51.336;12.340;2023-05-19T04:08:48;10.30;99.90
2062;DHT22;11070;51.336;12.340;2023-05-19T04:11:14;10.30;99.90
2062;DHT22;11070;51.336;12.340;2023-05-19T04:13:40;10.30;99.90
2062;DHT22;11070;51.336;12.340;2023-05-19T04:16:06;10.40;99.90
2062;DHT22;11070;51.336;12.340;2023-05-19T04:18:32;10.40;99.90
2062;DHT22;11070;51.336;12.340;2023-05-19T04:20:57;10.40;99.90
2062;DHT22;11070;51.336;12.340;2023-05-19T04:23:23;10.40;99.90
2062;DHT22;11070;51.336;12.340;2023-05-19T04:25:49;10.50;99.90
2062;DHT22;11070;51.336;12.340;2023-05-19T04:28:14;10.60;99.90
2062;DHT22;11070;51.336;12.340;2023-05-19T04:30:40;10.60;99.90
2062;DHT22;11070;51.336;12.340;2023-05-19T04:33:07;10.70;99.90
2062;DHT22;11070;51.336;12.340;2023-05-19T04:35:33;10.70;99.90
2062;DHT22;11070;51.336;12.340;2023-05-19T04:37:59;10.80;99.90
2062;DHT22;11070;51.336;12.340;2023-05-19T04:40:26;10.80;99.90
2062;DHT22;11070;51.336;12.340;2023-05-19T04:42:52;10.80;99.90
2062;DHT22;11070;51.336;12.340;2023-05-19T04:45:18;10.80;99.90
2062;DHT22;11070;51.336;12.340;2023-05-19T04:47:44;10.80;99.90
2062;DHT22;11070;51.336;12.340;2023-05-19T04:50:12;10.90;99.90
2062;DHT22;11070;51.336;12.340;2023-05-19T04:52:39;11.00;99.90
2062;DHT22;11070;51.336;12.340;2023-05-19T04:55:05;11.00;99.90
2062;DHT22;11070;51.336;12.340;2023-05-19T04:57:30;11.10;99.90
2062;DHT22;11070;51.336;12.340;2023-05-19T04:59:56;11.10;99.90
2062;DHT22;11070;51.336;12.340;2023-05-19T05:02:25;11.20;99.90
2062;DHT22;11070;51.336;12.340;2023-05-19T05:04:52;11.30;99.90
2062;DHT22;11070;51.336;12.340;2023-05-19T05:07:22;11.30;99.90
2062;DHT22;11070;51.336;12.340;2023-05-19T05:09:48;11.30;99.90
2062;DHT22;11070;51.336;12.340;2023-05-19T05:12:14;11.40;99.90
2062;DHT22;11070;51.336;12.340;2023-05-19T05:14:40;11.50;99.90
2062;DHT22;11070;51.336;12.340;2023-05-19T05:17:06;11.50;99.90
2062;DHT22;11070;51.336;12.340;2023-05-19T05:19:34;11.40;99.90
2062;DHT22;11070;51.336;12.340;2023-05-19T05:22:00;11.50;99.90
2062;DHT22;11070;51.336;12.340;2023-05-19T05:24:26;11.50;99.90
2062;DHT22;11070;51.336;12.340;2023-05-19T05:26:52;11.60;99.90
2062;DHT22;11070;51.336;12.340;2023-05-19T05:29:18;11.80;99.90
2062;DHT22;11070;51.336;12.340;2023-05-19T05:31:44;11.90;99.90
2062;DHT22;11070;51.336;12.340;2023-05-19T05:34:10;12.10;99.90
2062;DHT22;11070;51.336;12.340;2023-05-19T05:36:35;12.20;99.90
2062;DHT22;11070;51.336;12.340;2023-05-19T05:39:01;12.30;99.90
2062;DHT22;11070;51.336;12.340;2023-05-19T05:41:27;12.40;99.90
2062;DHT22;11070;51.336;12.340;2023-05-19T05:44:00;12.40;99.90
2062;DHT22;11070;51.336;12.340;2023-05-19T05:46:25;12.50;99.90
2062;DHT22;11070;51.336;12.340;2023-05-19T05:48:51;12.60;99.90
2062;DHT22;11070;51.336;12.340;2023-05-19T05:51:20;12.80;99.90
2062;DHT22;11070;51.336;12.340;2023-05-19T05:53:53;12.90;99.90
2062;DHT22;11070;51.336;12.340;2023-05-19T05:56:20;13.10;99.90
2062;DHT22;11070;51.336;12.340;2023-05-19T05:58:46;13.30;99.90
2062;DHT22;11070;51.336;12.340;2023-05-19T06:01:12;13.50;99.90
2062;DHT22;11070;51.336;12.340;2023-05-19T06:03:39;13.60;99.90
2062;DHT22;11070;51.336;12.340;2023-05-19T06:06:05;13.70;99.90
2062;DHT22;11070;51.336;12.340;2023-05-19T06:08:31;13.70;99.90
2062;DHT22;11070;51.336;12.340;2023-05-19T06:10:57;13.80;99.90
2062;DHT22;11070;51.336;12.340;2023-05-19T06:13:23;13.90;99.90
2062;DHT22;11070;51.336;12.340;2023-05-19T06:15:50;14.00;99.90
2062;DHT22;11070;51.336;12.340;2023-05-19T06:18:17;14.20;99.90
2062;DHT22;11070;51.336;12.340;2023-05-19T06:20:43;14.40;99.90
2062;DHT22;11070;51.336;12.340;2023-05-19T06:23:08;14.60;99.90
2062;DHT22;11070;51.336;12.340;2023-05-19T06:25:34;14.60;99.90
2062;DHT22;11070;51.336;12.340;2023-05-19T06:28:00;14.70;99.90
2062;DHT22;11070;51.336;12.340;2023-05-19T06:30:26;14.80;99.90
2062;DHT22;11070;51.336;12.340;2023-05-19T06:32:51;14.80;99.90
2062;DHT22;11070;51.336;12.340;2023-05-19T06:35:17;14.80;99.90
2062;DHT22;11070;51.336;12.340;2023-05-19T06:37:43;14.80;99.90
2062;DHT22;11070;51.336;12.340;2023-05-19T06:40:09;14.80;99.90
2062;DHT22;11070;51.336;12.340;2023-05-19T06:42:35;14.90;99.90
2062;DHT22;11070;51.336;12.340;2023-05-19T06:45:01;14.90;99.90
2062;DHT22;11070;51.336;12.340;2023-05-19T06:47:27;15.00;99.90
2062;DHT22;11070;51.336;12.340;2023-05-19T06:49:52;15.20;99.90
2062;DHT22;11070;51.336;12.340;2023-05-19T06:52:21;15.40;99.90
2062;DHT22;11070;51.336;12.340;2023-05-19T06:54:48;15.90;99.90
2062;DHT22;11070;51.336;12.340;2023-05-19T06:57:14;16.00;99.90
2062;DHT22;11070;51.336;12.340;2023-05-19T06:59:40;16.20;99.90
2062;DHT22;11070;51.336;12.340;2023-05-19T07:02:08;16.40;99.90
2062;DHT22;11070;51.336;12.340;2023-05-19T07:04:34;16.60;99.90
2062;DHT22;11070;51.336;12.340;2023-05-19T07:07:00;16.80;99.90
2062;DHT22;11070;51.336;12.340;2023-05-19T07:09:25;17.10;99.90
2062;DHT22;11070;51.336;12.340;2023-05-19T07:11:51;17.20;99.90
2062;DHT22;11070;51.336;12.340;2023-05-19T07:14:17;17.10;99.90
2062;DHT22;11070;51.336;12.340;2023-05-19T07:16:42;16.90;99.90
2062;DHT22;11070;51.336;12.340;2023-05-19T07:19:08;17.20;99.90
2062;DHT22;11070;51.336;12.340;2023-05-19T07:21:34;17.20;99.90
2062;DHT22;11070;51.336;12.340;2023-05-19T07:24:00;17.20;99.90
2062;DHT22;11070;51.336;12.340;2023-05-19T07:26:25;17.30;99.90
2062;DHT22;11070;51.336;12.340;2023-05-19T07:28:51;17.50;99.90
2062;DHT22;11070;51.336;12.340;2023-05-19T07:31:17;17.80;99.90
2062;DHT22;11070;51.336;12.340;2023-05-19T07:33:43;18.00;97.80
2062;DHT22;11070;51.336;12.340;2023-05-19T07:36:09;17.70;97.60
2062;DHT22;11070;51.336;12.340;2023-05-19T07:38:35;17.60;97.90
2062;DHT22;11070;51.336;12.340;2023-05-19T07:41:01;17.40;98.60
2062;DHT22;11070;51.336;12.340;2023-05-19T07:43:27;17.50;98.80
2062;DHT22;11070;51.336;12.340;2023-05-19T07:45:53;17.70;97.40
2062;DHT22;11070;51.336;12.340;2023-05-19T07:48:20;17.90;96.30
2062;DHT22;11070;51.336;12.340;2023-05-19T07:50:48;18.00;95.70
2062;DHT22;11070;51.336;12.340;2023-05-19T07:53:14;18.00;94.00
2062;DHT22;11070;51.336;12.340;2023-05-19T07:55:39;18.10;93.30
2062;DHT22;11070;51.336;12.340;2023-05-19T07:58:05;18.20;92.10
2062;DHT22;11070;51.336;12.340;2023-05-19T08:00:31;18.10;91.50
2062;DHT22;11070;51.336;12.340;2023-05-19T08:02:57;18.10;91.10
2062;DHT22;11070;51.336;12.340;2023-05-19T08:05:23;18.10;90.50
2062;DHT22;11070;51.336;12.340;2023-05-19T08:07:50;18.40;89.50
2062;DHT22;11070;51.336;12.340;2023-05-19T08:10:16;18.70;87.80
2062;DHT22;11070;51.336;12.340;2023-05-19T08:12:42;18.60;86.80
2062;DHT22;11070;51.336;12.340;2023-05-19T08:15:08;18.60;86.30
2062;DHT22;11070;51.336;12.340;2023-05-19T08:17:36;18.70;85.00
2062;DHT22;11070;51.336;12.340;2023-05-19T08:20:03;18.90;82.80
2062;DHT22;11070;51.336;12.340;2023-05-19T08:22:30;19.00;82.50
2062;DHT22;11070;51.336;12.340;2023-05-19T08:24:56;19.00;82.90
2062;DHT22;11070;51.336;12.340;2023-05-19T08:27:22;19.10;81.80
2062;DHT22;11070;51.336;12.340;2023-05-19T08:29:48;19.30;80.50
2062;DHT22;11070;51.336;12.340;2023-05-19T08:32:13;19.20;81.10
2062;DHT22;11070;51.336;12.340;2023-05-19T08:34:39;19.40;80.90
2062;DHT22;11070;51.336;12.340;2023-05-19T08:37:05;19.60;80.90
2062;DHT22;11070;51.336;12.340;2023-05-19T08:39:32;19.90;79.40
2062;DHT22;11070;51.336;12.340;2023-05-19T08:41:59;20.10;77.70
2062;DHT22;11070;51.336;12.340;2023-05-19T08:44:26;20.00;77.20
2062;DHT22;11070;51.336;12.340;2023-05-19T08:46:54;20.10;77.80
2062;DHT22;11070;51.336;12.340;2023-05-19T08:49:26;20.60;77.10
2062;DHT22;11070;51.336;12.340;2023-05-19T08:54:59;20.30;74.00
2062;DHT22;11070;51.336;12.340;2023-05-19T08:57:26;20.40;71.10
2062;DHT22;11070;51.336;12.340;2023-05-19T08:59:53;20.20;72.80
2062;DHT22;11070;51.336;12.340;2023-05-19T09:02:21;19.90;73.70
2062;DHT22;11070;51.336;12.340;2023-05-19T09:04:47;20.20;72.90
2062;DHT22;11070;51.336;12.340;2023-05-19T09:07:13;20.50;72.00
2062;DHT22;11070;51.336;12.340;2023-05-19T09:09:41;20.80;69.10
2062;DHT22;11070;51.336;12.340;2023-05-19T09:12:11;20.70;68.00
2062;DHT22;11070;51.336;12.340;2023-05-19T09:14:37;20.80;67.60
2062;DHT22;11070;51.336;12.340;2023-05-19T09:17:03;20.70;67.40
2062;DHT22;11070;51.336;12.340;2023-05-19T09:19:30;20.80;66.30
2062;DHT22;11070;51.336;12.340;2023-05-19T09:22:00;20.60;66.40
2062;DHT22;11070;51.336;12.340;2023-05-19T09:24:27;20.60;67.00
2062;DHT22;11070;51.336;12.340;2023-05-19T09:26:56;20.50;66.00
2062;DHT22;11070;51.336;12.340;2023-05-19T09:29:22;20.20;67.60
2062;DHT22;11070;51.336;12.340;2023-05-19T09:31:52;20.00;66.70
2062;DHT22;11070;51.336;12.340;2023-05-19T09:34:19;19.80;67.30
2062;DHT22;11070;51.336;12.340;2023-05-19T09:36:49;19.80;66.50
2062;DHT22;11070;51.336;12.340;2023-05-19T09:39:17;19.60;66.00
2062;DHT22;11070;51.336;12.340;2023-05-19T09:41:43;19.30;66.80
2062;DHT22;11070;51.336;12.340;2023-05-19T09:44:27;19.00;67.60
2062;DHT22;11070;51.336;12.340;2023-05-19T09:46:57;19.30;67.60
2062;DHT22;11070;51.336;12.340;2023-05-19T09:49:23;19.20;66.50
2062;DHT22;11070;51.336;12.340;2023-05-19T09:51:53;19.10;64.90
2062;DHT22;11070;51.336;12.340;2023-05-19T09:54:20;19.10;65.20
2062;DHT22;11070;51.336;12.340;2023-05-19T09:57:04;19.50;65.10
2062;DHT22;11070;51.336;12.340;2023-05-19T09:59:31;20.10;64.10
2062;DHT22;11070;51.336;12.340;2023-05-19T10:01:58;20.60;63.10
2062;DHT22;11070;51.336;12.340;2023-05-19T10:04:26;20.80;61.40
2062;DHT22;11070;51.336;12.340;2023-05-19T10:06:56;20.70;62.50
2062;DHT22;11070;51.336;12.340;2023-05-19T10:09:29;20.80;63.50
2062;DHT22;11070;51.336;12.340;2023-05-19T10:11:56;20.90;63.60
2062;DHT22;11070;51.336;12.340;2023-05-19T10:14:27;21.30;64.20
2062;DHT22;11070;51.336;12.340;2023-05-19T10:16:55;21.60;62.60
2062;DHT22;11070;51.336;12.340;2023-05-19T10:19:25;21.70;61.90
2062;DHT22;11070;51.336;12.340;2023-05-19T10:21:51;21.60;61.30
2062;DHT22;11070;51.336;12.340;2023-05-19T10:24:18;22.00;60.10
2062;DHT22;11070;51.336;12.340;2023-05-19T10:26:50;22.00;61.30
2062;DHT22;11070;51.336;12.340;2023-05-19T10:29:22;22.20;62.00
2062;DHT22;11070;51.336;12.340;2023-05-19T10:31:51;22.40;58.90
2062;DHT22;11070;51.336;12.340;2023-05-19T10:39:34;22.90;58.10
2062;DHT22;11070;51.336;12.340;2023-05-19T10:42:10;22.90;57.70
2062;DHT22;11070;51.336;12.340;2023-05-19T10:47:28;23.40;57.40
2062;DHT22;11070;51.336;12.340;2023-05-19T10:49:54;23.50;56.60
2062;DHT22;11070;51.336;12.340;2023-05-19T10:52:22;23.50;56.60
2062;DHT22;11070;51.336;12.340;2023-05-19T10:54:51;23.40;56.30
2062;DHT22;11070;51.336;12.340;2023-05-19T10:57:20;23.80;54.20
2062;DHT22;11070;51.336;12.340;2023-05-19T10:59:49;24.00;53.50
2062;DHT22;11070;51.336;12.340;2023-05-19T11:02:53;24.20;52.10
2062;DHT22;11070;51.336;12.340;2023-05-19T11:05:40;24.00;53.10
2062;DHT22;11070;51.336;12.340;2023-05-19T11:08:12;23.40;52.60
2062;DHT22;11070;51.336;12.340;2023-05-19T11:10:44;23.20;53.90
2062;DHT22;11070;51.336;12.340;2023-05-19T11:13:18;23.30;54.90
2062;DHT22;11070;51.336;12.340;2023-05-19T11:15:45;23.70;54.80
2062;DHT22;11070;51.336;12.340;2023-05-19T11:18:13;23.90;54.70
2062;DHT22;11070;51.336;12.340;2023-05-19T11:20:41;23.60;54.80
2062;DHT22;11070;51.336;12.340;2023-05-19T11:23:14;23.80;55.30
2062;DHT22;11070;51.336;12.340;2023-05-19T11:28:09;24.60;55.30
2062;DHT22;11070;51.336;12.340;2023-05-19T11:30:36;24.90;55.00
2062;DHT22;11070;51.336;12.340;2023-05-19T11:33:03;24.40;54.20
2062;DHT22;11070;51.336;12.340;2023-05-19T11:35:30;23.80;55.10
2062;DHT22;11070;51.336;12.340;2023-05-19T11:37:58;23.50;55.30
2062;DHT22;11070;51.336;12.340;2023-05-19T11:40:24;23.60;56.00
2062;DHT22;11070;51.336;12.340;2023-05-19T11:42:51;23.80;55.90
2062;DHT22;11070;51.336;12.340;2023-05-19T11:45:22;23.90;55.80
2062;DHT22;11070;51.336;12.340;2023-05-19T11:47:49;24.10;55.40
2062;DHT22;11070;51.336;12.340;2023-05-19T11:50:15;24.30;54.90
2062;DHT22;11070;51.336;12.340;2023-05-19T11:52:44;24.10;54.80
2062;DHT22;11070;51.336;12.340;2023-05-19T11:55:21;24.30;55.40
2062;DHT22;11070;51.336;12.340;2023-05-19T11:57:59;24.40;54.30
2062;DHT22;11070;51.336;12.340;2023-05-19T12:00:27;24.20;53.80
2062;DHT22;11070;51.336;12.340;2023-05-19T12:02:52;24.20;53.80
2062;DHT22;11070;51.336;12.340;2023-05-19T12:05:22;23.80;54.00
2062;DHT22;11070;51.336;12.340;2023-05-19T12:07:48;23.70;54.90
2062;DHT22;11070;51.336;12.340;2023-05-19T12:10:25;23.50;53.40
2062;DHT22;11070;51.336;12.340;2023-05-19T12:12:52;23.60;53.80
2062;DHT22;11070;51.336;12.340;2023-05-19T12:15:22;23.50;53.50
2062;DHT22;11070;51.336;12.340;2023-05-19T12:17:56;23.20;54.10
2062;DHT22;11070;51.336;12.340;2023-05-19T12:20:26;22.90;55.30
2062;DHT22;11070;51.336;12.340;2023-05-19T12:22:54;22.60;56.00
2062;DHT22;11070;51.336;12.340;2023-05-19T12:25:20;22.40;55.90
2062;DHT22;11070;51.336;12.340;2023-05-19T12:27:46;22.40;55.90
2062;DHT22;11070;51.336;12.340;2023-05-19T12:30:14;22.80;55.40
2062;DHT22;11070;51.336;12.340;2023-05-19T12:32:39;23.30;55.00
2062;DHT22;11070;51.336;12.340;2023-05-19T12:35:05;23.20;54.70
2062;DHT22;11070;51.336;12.340;2023-05-19T12:37:32;23.40;54.70
2062;DHT22;11070;51.336;12.340;2023-05-19T12:40:00;23.60;54.40
2062;DHT22;11070;51.336;12.340;2023-05-19T12:42:29;23.10;53.60
2062;DHT22;11070;51.336;12.340;2023-05-19T12:44:57;23.20;53.90
2062;DHT22;11070;51.336;12.340;2023-05-19T12:47:32;23.80;54.30
2062;DHT22;11070;51.336;12.340;2023-05-19T12:50:06;23.80;53.00
2062;DHT22;11070;51.336;12.340;2023-05-19T12:52:54;23.70;52.40
2062;DHT22;11070;51.336;12.340;2023-05-19T12:55:20;23.80;51.80
2062;DHT22;11070;51.336;12.340;2023-05-19T12:57:50;24.30;50.40
2062;DHT22;11070;51.336;12.340;2023-05-19T13:00:22;24.60;50.00
2062;DHT22;11070;51.336;12.340;2023-05-19T13:03:00;24.80;49.80
2062;DHT22;11070;51.336;12.340;2023-05-19T13:05:27;24.20;50.80
2062;DHT22;11070;51.336;12.340;2023-05-19T13:07:56;23.90;51.80
2062;DHT22;11070;51.336;12.340;2023-05-19T13:10:23;23.70;51.70
2062;DHT22;11070;51.336;12.340;2023-05-19T13:12:51;23.80;52.10
2062;DHT22;11070;51.336;12.340;2023-05-19T13:15:17;24.30;52.10
2062;DHT22;11070;51.336;12.340;2023-05-19T13:17:43;24.40;51.50
2062;DHT22;11070;51.336;12.340;2023-05-19T13:20:11;24.10;52.00
2062;DHT22;11070;51.336;12.340;2023-05-19T13:22:37;23.80;52.10
2062;DHT22;11070;51.336;12.340;2023-05-19T13:25:03;23.30;52.10
2062;DHT22;11070;51.336;12.340;2023-05-19T13:27:29;22.80;52.50
2062;DHT22;11070;51.336;12.340;2023-05-19T13:29:54;23.00;53.30
2062;DHT22;11070;51.336;12.340;2023-05-19T13:32:20;23.10;53.30
2062;DHT22;11070;51.336;12.340;2023-05-19T13:34:45;22.90;52.30
2062;DHT22;11070;51.336;12.340;2023-05-19T13:37:11;22.90;52.60
2062;DHT22;11070;51.336;12.340;2023-05-19T13:39:37;22.50;53.20
2062;DHT22;11070;51.336;12.340;2023-05-19T13:42:03;22.60;53.90
2062;DHT22;11070;51.336;12.340;2023-05-19T13:44:29;23.00;53.70
2062;DHT22;11070;51.336;12.340;2023-05-19T13:46:55;23.00;53.20
2062;DHT22;11070;51.336;12.340;2023-05-19T13:49:20;22.40;53.70
2062;DHT22;11070;51.336;12.340;2023-05-19T13:51:47;21.80;54.60
2062;DHT22;11070;51.336;12.340;2023-05-19T13:54:12;21.50;55.00
2062;DHT22;11070;51.336;12.340;2023-05-19T13:56:38;21.40;55.70
2062;DHT22;11070;51.336;12.340;2023-05-19T13:59:04;21.20;55.50
2062;DHT22;11070;51.336;12.340;2023-05-19T14:01:29;21.10;56.00
2062;DHT22;11070;51.336;12.340;2023-05-19T14:03:55;21.30;56.40
2062;DHT22;11070;51.336;12.340;2023-05-19T14:06:20;21.70;56.50
2062;DHT22;11070;51.336;12.340;2023-05-19T14:08:46;21.40;57.10
2062;DHT22;11070;51.336;12.340;2023-05-19T14:11:18;21.10;57.50
2062;DHT22;11070;51.336;12.340;2023-05-19T14:13:47;20.80;57.60
2062;DHT22;11070;51.336;12.340;2023-05-19T14:16:15;20.80;57.70
2062;DHT22;11070;51.336;12.340;2023-05-19T14:18:40;20.80;57.80
2062;DHT22;11070;51.336;12.340;2023-05-19T14:21:06;21.40;57.60
2062;DHT22;11070;51.336;12.340;2023-05-19T14:23:32;21.90;57.30
2062;DHT22;11070;51.336;12.340;2023-05-19T14:25:58;22.10;57.10
2062;DHT22;11070;51.336;12.340;2023-05-19T14:28:23;22.00;58.00
2062;DHT22;11070;51.336;12.340;2023-05-19T14:30:49;21.50;59.10
2062;DHT22;11070;51.336;12.340;2023-05-19T14:33:15;21.60;60.20
2062;DHT22;11070;51.336;12.340;2023-05-19T14:35:41;21.80;60.50
2062;DHT22;11070;51.336;12.340;2023-05-19T14:38:07;21.40;60.90
2062;DHT22;11070;51.336;12.340;2023-05-19T14:40:35;20.90;62.40
2062;DHT22;11070;51.336;12.340;2023-05-19T14:43:01;20.30;64.20
2062;DHT22;11070;51.336;12.340;2023-05-19T14:45:27;19.90;65.20
2062;DHT22;11070;51.336;12.340;2023-05-19T14:47:52;19.90;66.00
2062;DHT22;11070;51.336;12.340;2023-05-19T14:50:18;19.80;66.10
2062;DHT22;11070;51.336;12.340;2023-05-19T14:52:44;19.90;65.30
2062;DHT22;11070;51.336;12.340;2023-05-19T14:55:09;20.10;66.20
2062;DHT22;11070;51.336;12.340;2023-05-19T14:57:35;20.00;65.90
2062;DHT22;11070;51.336;12.340;2023-05-19T15:00:01;19.90;66.20
2062;DHT22;11070;51.336;12.340;2023-05-19T15:02:26;19.70;65.80
2062;DHT22;11070;51.336;12.340;2023-05-19T15:04:52;19.90;66.40
2062;DHT22;11070;51.336;12.340;2023-05-19T15:07:18;20.00;67.00
2062;DHT22;11070;51.336;12.340;2023-05-19T15:09:43;20.10;67.00
2062;DHT22;11070;51.336;12.340;2023-05-19T15:12:09;20.20;66.60
2062;DHT22;11070;51.336;12.340;2023-05-19T15:14:35;20.10;67.70
2062;DHT22;11070;51.336;12.340;2023-05-19T15:17:00;19.90;68.10
2062;DHT22;11070;51.336;12.340;2023-05-19T15:19:26;20.00;68.00
2062;DHT22;11070;51.336;12.340;2023-05-19T15:21:51;20.00;67.30
2062;DHT22;11070;51.336;12.340;2023-05-19T15:24:17;20.10;67.20
2062;DHT22;11070;51.336;12.340;2023-05-19T15:26:43;20.10;67.60
2062;DHT22;11070;51.336;12.340;2023-05-19T15:29:09;20.10;67.30
2062;DHT22;11070;51.336;12.340;2023-05-19T15:31:35;19.90;67.70
2062;DHT22;11070;51.336;12.340;2023-05-19T15:34:00;19.80;68.90
2062;DHT22;11070;51.336;12.340;2023-05-19T15:36:26;19.90;67.60
2062;DHT22;11070;51.336;12.340;2023-05-19T15:38:52;20.20;67.40
2062;DHT22;11070;51.336;12.340;2023-05-19T15:41:17;20.10;66.70
2062;DHT22;11070;51.336;12.340;2023-05-19T15:43:43;20.00;67.50
2062;DHT22;11070;51.336;12.340;2023-05-19T15:46:10;19.80;67.80
2062;DHT22;11070;51.336;12.340;2023-05-19T15:48:37;19.80;67.90
2062;DHT22;11070;51.336;12.340;2023-05-19T15:51:03;19.70;68.20
2062;DHT22;11070;51.336;12.340;2023-05-19T15:53:29;19.60;68.40
2062;DHT22;11070;51.336;12.340;2023-05-19T15:55:54;19.50;69.00
2062;DHT22;11070;51.336;12.340;2023-05-19T15:58:22;19.40;70.10
2062;DHT22;11070;51.336;12.340;2023-05-19T16:00:47;19.30;70.90
2062;DHT22;11070;51.336;12.340;2023-05-19T16:03:13;19.10;71.30